Time;durP1;ratioP1;P1;durP2;ratioP2;P2;SDS_P1;SDS_P2;PMS_P1;PMS_P2;Temp;Humidity;BMP_temperature;BMP_pressure;BME280_temperature;BME280_humidity;BME280_pressure;Samples;Min_cycle;Max_cycle;Signal;HPM_P1;HPM_P2
2021/09/09 00:02:05;;;;;;;19.00;14.52;;;17.30;45.40;;;;;;5031868;28;20764;-75
2021/09/09 00:04:30;;;;;;;19.53;15.00;;;17.40;45.30;;;;;;5033966;28;20403;-76
2021/09/09 00:06:56;;;;;;;18.63;14.63;;;17.40;45.10;;;;;;5053851;28;20472;-74
2021/09/09 00:09:22;;;;;;;21.52;14.20;;;17.30;45.10;;;;;;5057161;28;20397;-75
2021/09/09 00:11:48;;;;;;;18.45;14.50;;;17.30;45.00;;;;;;5032489;28;20395;-75
2021/09/09 00:14:13;;;;;;;19.40;14.50;;;17.40;44.70;;;;;;5032471;28;20429;-75
2021/09/09 00:16:40;;;;;;;19.93;14.17;;;17.40;43.90;;;;;;5032506;28;20406;-75
2021/09/09 00:19:06;;;;;;;21.73;14.75;;;17.40;43.70;;;;;;5032482;28;20761;-75
2021/09/09 00:21:32;;;;;;;20.98;14.20;;;17.40;43.60;;;;;;5036927;28;20411;-75
2021/09/09 00:23:58;;;;;;;20.47;14.40;;;17.40;43.70;;;;;;5039019;28;20473;-75
2021/09/09 00:26:23;;;;;;;21.13;14.68;;;17.50;43.70;;;;;;5039191;28;20398;-75
2021/09/09 00:28:49;;;;;;;22.47;13.97;;;17.50;43.20;;;;;;5032914;28;20530;-75
2021/09/09 00:31:15;;;;;;;21.23;13.90;;;17.50;43.50;;;;;;5030812;28;20478;-75
2021/09/09 00:33:43;;;;;;;19.95;13.95;;;17.50;42.70;;;;;;5031719;28;20383;-75
2021/09/09 00:36:09;;;;;;;22.40;14.60;;;17.50;42.20;;;;;;5032370;28;20522;-76
2021/09/09 00:38:35;;;;;;;20.08;14.18;;;17.60;41.80;;;;;;5033017;28;20426;-76
2021/09/09 00:41:01;;;;;;;17.88;13.20;;;17.60;41.70;;;;;;5033789;28;20423;-75
2021/09/09 00:43:26;;;;;;;17.48;13.52;;;17.70;41.20;;;;;;5033259;28;20452;-76
2021/09/09 00:45:54;;;;;;;18.40;13.80;;;17.70;41.00;;;;;;5032971;28;20407;-76
2021/09/09 00:48:20;;;;;;;21.35;14.48;;;17.70;40.60;;;;;;5033955;28;20391;-76
2021/09/09 00:50:47;;;;;;;18.10;13.80;;;17.70;40.30;;;;;;5034583;28;20425;-74
2021/09/09 00:53:12;;;;;;;18.52;13.88;;;17.80;39.90;;;;;;5035108;28;20375;-73
2021/09/09 00:55:38;;;;;;;17.85;13.27;;;17.80;39.30;;;;;;5033188;28;20398;-75
2021/09/09 00:58:04;;;;;;;21.45;14.20;;;17.90;38.90;;;;;;5031923;28;20406;-75
2021/09/09 01:00:30;;;;;;;18.35;13.77;;;17.90;38.40;;;;;;5030917;28;20399;-75
2021/09/09 01:02:55;;;;;;;17.80;12.93;;;18.00;38.10;;;;;;5032059;28;20461;-75
2021/09/09 01:05:21;;;;;;;21.20;13.63;;;18.00;37.70;;;;;;5034168;28;20403;-73
2021/09/09 01:07:47;;;;;;;19.77;13.17;;;18.00;37.90;;;;;;5051384;28;20396;-73
2021/09/09 01:10:12;;;;;;;16.80;13.40;;;18.00;37.30;;;;;;5044115;28;20379;-75
2021/09/09 01:12:38;;;;;;;16.50;12.60;;;18.10;37.40;;;;;;5028556;28;20454;-75
2021/09/09 01:15:06;;;;;;;18.40;12.55;;;18.10;37.20;;;;;;5012480;28;20480;-73
2021/09/09 01:17:31;;;;;;;17.30;13.32;;;18.20;36.40;;;;;;5012643;28;20754;-75
2021/09/09 01:19:57;;;;;;;20.73;12.97;;;18.30;35.50;;;;;;5022627;28;20383;-75
2021/09/09 01:22:22;;;;;;;18.50;13.03;;;18.40;35.20;;;;;;5033906;28;20486;-73
2021/09/09 01:24:48;;;;;;;17.92;12.90;;;18.30;35.50;;;;;;5034802;28;20391;-74
2021/09/09 01:27:17;;;;;;;22.23;12.70;;;18.30;35.30;;;;;;5033798;28;20536;-76
2021/09/09 01:29:43;;;;;;;19.30;13.10;;;18.40;34.50;;;;;;5038836;28;20387;-75
2021/09/09 01:32:09;;;;;;;18.58;13.40;;;18.40;35.00;;;;;;5042159;28;20398;-77
2021/09/09 01:34:35;;;;;;;17.92;12.10;;;18.40;34.70;;;;;;5038212;28;20448;-79
2021/09/09 01:37:01;;;;;;;17.27;12.93;;;18.50;34.50;;;;;;5038950;28;20399;-77
2021/09/09 01:39:27;;;;;;;16.13;11.80;;;18.50;34.20;;;;;;5040788;28;20462;-76
2021/09/09 01:41:55;;;;;;;19.88;12.80;;;18.40;34.40;;;;;;5047153;28;20395;-77
2021/09/09 01:44:21;;;;;;;16.27;12.30;;;18.40;34.60;;;;;;5050334;28;20478;-76
2021/09/09 01:46:47;;;;;;;22.27;12.75;;;18.50;34.10;;;;;;5046191;28;20399;-75
2021/09/09 01:49:12;;;;;;;16.67;12.20;;;18.40;34.20;;;;;;5044907;28;20406;-76
2021/09/09 01:51:38;;;;;;;16.08;12.43;;;18.40;34.40;;;;;;5031549;28;20381;-76
2021/09/09 01:54:04;;;;;;;26.00;13.63;;;18.40;34.40;;;;;;5035269;28;20387;-77
2021/09/09 01:56:30;;;;;;;17.73;12.30;;;18.40;34.30;;;;;;5041360;28;20395;-77
2021/09/09 01:58:55;;;;;;;19.50;13.20;;;18.40;34.20;;;;;;5036369;28;20395;-77
2021/09/09 02:01:22;;;;;;;18.23;12.75;;;18.40;34.40;;;;;;5035986;28;20387;-77
2021/09/09 02:03:47;;;;;;;16.60;12.30;;;18.40;34.20;;;;;;5035388;28;20406;-77
2021/09/09 02:06:13;;;;;;;24.83;13.00;;;18.40;34.30;;;;;;5045562;28;20405;-79
2021/09/09 02:08:39;;;;;;;18.95;13.38;;;18.30;34.40;;;;;;5055206;28;20386;-77
2021/09/09 02:11:05;;;;;;;20.00;13.00;;;18.30;34.40;;;;;;5038236;28;20463;-78
2021/09/09 02:13:30;;;;;;;20.27;12.88;;;18.30;34.20;;;;;;5036434;28;20388;-78
2021/09/09 02:15:56;;;;;;;16.97;12.30;;;18.40;33.90;;;;;;5035394;28;20402;-76
2021/09/09 02:18:21;;;;;;;21.60;13.95;;;18.40;33.80;;;;;;5019145;28;20393;-77
2021/09/09 02:20:47;;;;;;;22.40;13.40;;;18.40;33.90;;;;;;5029711;28;20417;-79
2021/09/09 02:23:13;;;;;;;17.07;13.10;;;18.40;34.30;;;;;;5035211;28;20387;-77
2021/09/09 02:25:38;;;;;;;18.92;13.18;;;18.30;34.30;;;;;;5034639;28;20407;-76
2021/09/09 02:28:05;;;;;;;17.65;12.65;;;18.30;34.50;;;;;;5033913;28;20422;-75
2021/09/09 02:30:31;;;;;;;18.15;12.85;;;18.30;34.50;;;;;;5035395;28;20390;-77
2021/09/09 02:32:56;;;;;;;17.77;13.00;;;18.30;34.30;;;;;;5034189;28;20391;-78
2021/09/09 02:35:22;;;;;;;17.50;12.25;;;18.20;34.40;;;;;;5035335;28;20748;-77
2021/09/09 02:37:47;;;;;;;18.67;12.95;;;18.20;34.40;;;;;;5035187;28;20478;-78
2021/09/09 02:40:14;;;;;;;17.83;13.10;;;18.30;34.50;;;;;;5034768;28;20383;-78
2021/09/09 02:42:41;;;;;;;20.13;12.47;;;18.20;34.60;;;;;;5037016;28;20402;-76
2021/09/09 02:45:07;;;;;;;16.60;12.15;;;18.20;34.80;;;;;;5038967;28;20397;-76
2021/09/09 02:47:33;;;;;;;20.93;13.17;;;18.20;34.50;;;;;;5021039;28;20397;-77
2021/09/09 02:49:58;;;;;;;15.97;12.10;;;18.10;34.80;;;;;;5013820;28;20908;-76
2021/09/09 02:52:24;;;;;;;19.20;12.50;;;18.10;34.80;;;;;;5012712;28;20408;-76
2021/09/09 02:54:50;;;;;;;18.30;12.70;;;18.10;35.30;;;;;;5013093;28;20727;-76
2021/09/09 02:57:15;;;;;;;17.30;12.15;;;18.00;35.50;;;;;;5032395;28;20880;-76
2021/09/09 02:59:41;;;;;;;16.33;12.30;;;18.00;35.50;;;;;;5030856;28;20402;-76
2021/09/09 03:02:06;;;;;;;18.63;13.17;;;17.90;35.80;;;;;;5032971;28;20402;-75
2021/09/09 03:04:32;;;;;;;19.08;12.88;;;17.90;36.00;;;;;;5032937;28;20399;-76
2021/09/09 03:06:58;;;;;;;15.23;12.07;;;17.90;35.80;;;;;;5048910;28;20901;-75
2021/09/09 03:09:23;;;;;;;16.27;12.60;;;17.90;36.10;;;;;;5050667;28;20387;-76
2021/09/09 03:11:49;;;;;;;16.17;12.73;;;17.90;35.90;;;;;;5031442;28;20391;-76
2021/09/09 03:14:14;;;;;;;17.80;12.17;;;17.90;36.10;;;;;;5012154;28;20387;-75
2021/09/09 03:16:40;;;;;;;19.35;12.77;;;17.90;36.10;;;;;;5012170;28;20861;-75
2021/09/09 03:19:06;;;;;;;17.95;11.85;;;17.80;36.20;;;;;;5011818;28;20396;-75
2021/09/09 03:21:31;;;;;;;22.40;12.70;;;17.80;36.60;;;;;;5031471;28;20405;-75
2021/09/09 03:23:57;;;;;;;17.97;13.17;;;17.70;36.80;;;;;;5031716;28;20468;-74
2021/09/09 03:26:22;;;;;;;17.77;12.80;;;17.70;36.90;;;;;;5029912;28;20414;-74
2021/09/09 03:28:48;;;;;;;20.75;13.43;;;17.70;37.60;;;;;;5031657;28;20816;-76
2021/09/09 03:31:13;;;;;;;18.27;12.70;;;17.70;36.90;;;;;;5031742;28;20437;-75
2021/09/09 03:33:39;;;;;;;21.30;13.40;;;17.60;37.20;;;;;;5031620;28;20391;-76
2021/09/09 03:36:05;;;;;;;19.08;12.88;;;17.50;37.50;;;;;;5030496;28;20391;-77
2021/09/09 03:38:30;;;;;;;15.07;11.87;;;17.50;37.90;;;;;;5031198;28;20410;-76
2021/09/09 03:40:56;;;;;;;22.63;13.45;;;17.40;38.20;;;;;;5029445;28;20452;-76
2021/09/09 03:43:21;;;;;;;18.60;13.35;;;17.40;38.40;;;;;;5030414;28;20441;-75
2021/09/09 03:45:47;;;;;;;18.40;12.80;;;17.50;38.50;;;;;;5030122;28;20429;-75
2021/09/09 03:48:13;;;;;;;18.83;12.90;;;17.40;38.60;;;;;;5026855;28;20407;-76
2021/09/09 03:50:38;;;;;;;17.20;13.63;;;17.40;38.90;;;;;;5012014;28;20743;-77
2021/09/09 03:53:04;;;;;;;18.77;13.17;;;17.30;39.20;;;;;;5011718;28;20373;-76
2021/09/09 03:55:30;;;;;;;19.52;13.60;;;17.30;39.60;;;;;;5030104;28;20398;-75
2021/09/09 03:57:55;;;;;;;18.98;13.75;;;17.20;39.70;;;;;;5011447;28;20399;-74
2021/09/09 04:00:21;;;;;;;20.93;14.30;;;17.20;40.00;;;;;;5011103;28;20488;-76
2021/09/09 04:02:46;;;;;;;19.60;13.90;;;17.10;40.70;;;;;;5011510;28;20436;-75
2021/09/09 04:05:12;;;;;;;17.65;13.30;;;17.10;40.70;;;;;;5014279;28;20742;-75
2021/09/09 04:07:38;;;;;;;20.42;13.52;;;17.10;41.00;;;;;;5036914;28;20446;-76
2021/09/09 04:10:04;;;;;;;18.57;13.80;;;17.10;41.00;;;;;;5017929;28;20411;-75
2021/09/09 04:12:30;;;;;;;21.77;14.40;;;17.00;41.20;;;;;;5033790;28;20461;-76
2021/09/09 04:14:56;;;;;;;22.57;13.90;;;17.00;41.80;;;;;;5031281;28;20395;-75
2021/09/09 04:17:21;;;;;;;18.67;13.90;;;16.90;42.30;;;;;;5031271;28;20518;-77
2021/09/09 04:19:47;;;;;;;18.92;14.70;;;16.90;42.50;;;;;;5031512;28;20470;-76
2021/09/09 04:22:12;;;;;;;20.90;14.00;;;16.90;42.40;;;;;;5030078;28;20485;-75
2021/09/09 04:24:38;;;;;;;20.70;13.90;;;16.90;42.70;;;;;;5030801;28;20403;-75
2021/09/09 04:27:04;;;;;;;22.30;13.60;;;16.90;42.80;;;;;;5030646;28;20768;-75
2021/09/09 04:29:30;;;;;;;19.20;14.02;;;16.90;43.10;;;;;;5030411;28;20406;-75
2021/09/09 04:31:56;;;;;;;22.90;14.30;;;16.90;43.50;;;;;;5029488;28;20375;-75
2021/09/09 04:34:21;;;;;;;18.07;14.07;;;16.80;44.10;;;;;;5029358;28;20411;-74
2021/09/09 04:36:47;;;;;;;20.60;14.23;;;16.80;44.00;;;;;;5030394;28;20426;-75
2021/09/09 04:39:12;;;;;;;22.85;15.30;;;16.80;44.00;;;;;;5029340;28;20445;-77
2021/09/09 04:41:38;;;;;;;20.67;13.48;;;16.80;43.70;;;;;;5030709;28;20383;-77
2021/09/09 04:44:05;;;;;;;20.42;14.60;;;16.80;44.30;;;;;;5045940;28;20402;-76
2021/09/09 04:46:31;;;;;;;20.23;14.50;;;16.70;44.50;;;;;;5030226;28;20776;-76
2021/09/09 04:48:56;;;;;;;20.83;14.83;;;16.80;44.50;;;;;;5025509;28;20458;-75
2021/09/09 04:51:22;;;;;;;23.93;14.93;;;16.70;45.00;;;;;;5011363;28;20443;-75
2021/09/09 04:53:48;;;;;;;22.10;15.17;;;16.70;45.00;;;;;;5015150;28;20487;-75
2021/09/09 04:56:14;;;;;;;20.77;14.17;;;16.70;45.50;;;;;;5016115;28;20419;-75
2021/09/09 04:58:39;;;;;;;20.67;14.83;;;16.70;45.30;;;;;;5029130;28;20395;-76
2021/09/09 05:01:05;;;;;;;21.10;14.90;;;16.70;45.20;;;;;;5041689;28;20956;-75
2021/09/09 05:03:31;;;;;;;21.08;13.93;;;16.70;45.00;;;;;;5040135;28;20409;-76
2021/09/09 05:05:56;;;;;;;22.83;14.38;;;16.70;45.20;;;;;;5042612;28;20406;-75
2021/09/09 05:08:22;;;;;;;21.20;14.73;;;16.70;45.60;;;;;;5052865;28;20443;-75
2021/09/09 05:10:48;;;;;;;20.23;14.02;;;16.60;46.10;;;;;;5041034;28;20733;-77
2021/09/09 05:13:13;;;;;;;22.10;15.37;;;16.60;45.80;;;;;;5036237;28;20817;-76
2021/09/09 05:15:39;;;;;;;27.93;15.50;;;16.70;45.70;;;;;;5038846;28;20426;-76
2021/09/09 05:18:04;;;;;;;20.95;14.00;;;16.70;46.00;;;;;;5019556;28;20396;-74
2021/09/09 05:20:30;;;;;;;25.00;15.02;;;16.70;45.60;;;;;;5032137;28;20601;-77
2021/09/09 05:22:56;;;;;;;18.73;14.43;;;16.70;45.70;;;;;;5037504;28;20383;-75
2021/09/09 05:25:21;;;;;;;21.27;14.63;;;16.70;45.60;;;;;;5034498;28;20442;-76
2021/09/09 05:27:47;;;;;;;22.20;14.53;;;16.80;45.10;;;;;;5033420;28;20394;-76
2021/09/09 05:30:13;;;;;;;18.48;14.00;;;16.80;45.10;;;;;;5033697;28;20418;-76
2021/09/09 05:32:39;;;;;;;26.02;15.52;;;16.90;44.80;;;;;;5033093;28;20752;-75
2021/09/09 05:35:05;;;;;;;19.38;13.90;;;16.90;44.60;;;;;;5033811;28;20836;-76
2021/09/09 05:37:30;;;;;;;19.33;14.38;;;16.90;44.70;;;;;;5033463;28;20394;-76
2021/09/09 05:39:56;;;;;;;19.73;14.70;;;17.00;44.50;;;;;;5033715;28;20383;-76
2021/09/09 05:42:22;;;;;;;23.27;14.98;;;17.10;44.30;;;;;;5033663;28;20383;-76
2021/09/09 05:44:47;;;;;;;20.75;14.30;;;17.10;44.10;;;;;;5033785;28;20475;-76
2021/09/09 05:47:13;;;;;;;22.38;15.05;;;17.10;43.90;;;;;;5032388;28;20513;-75
2021/09/09 05:49:38;;;;;;;22.87;14.17;;;17.20;43.20;;;;;;5029239;28;20417;-76
2021/09/09 05:52:05;;;;;;;22.17;14.40;;;17.40;42.00;;;;;;5035466;28;20393;-78
2021/09/09 05:54:32;;;;;;;21.05;14.93;;;17.40;41.50;;;;;;5013791;28;20729;-77
2021/09/09 05:56:58;;;;;;;19.63;14.30;;;17.50;41.30;;;;;;5030551;28;20405;-77
2021/09/09 05:59:23;;;;;;;23.88;13.88;;;17.60;40.90;;;;;;5032771;28;20643;-77
2021/09/09 06:01:50;;;;;;;23.10;15.02;;;17.70;40.60;;;;;;5030519;28;20406;-77
2021/09/09 06:04:17;;;;;;;21.53;14.03;;;17.80;39.70;;;;;;5033358;28;20387;-76
2021/09/09 06:06:43;;;;;;;22.38;14.80;;;17.80;39.50;;;;;;5021693;28;20416;-78
2021/09/09 06:09:09;;;;;;;28.13;14.13;;;17.90;39.50;;;;;;5012938;28;20523;-77
2021/09/09 06:11:35;;;;;;;20.00;14.20;;;18.00;39.10;;;;;;5032145;28;20485;-74
2021/09/09 06:14:01;;;;;;;20.17;14.80;;;18.10;39.00;;;;;;5033006;28;20375;-76
2021/09/09 06:16:26;;;;;;;17.67;13.10;;;18.10;38.90;;;;;;5030826;28;20760;-76
2021/09/09 06:18:52;;;;;;;21.17;14.25;;;18.10;38.70;;;;;;5031718;28;20395;-75
2021/09/09 06:21:18;;;;;;;20.83;14.30;;;18.20;38.20;;;;;;5028388;28;20403;-75
2021/09/09 06:23:43;;;;;;;22.02;13.48;;;18.30;38.30;;;;;;5014294;28;20403;-76
2021/09/09 06:26:09;;;;;;;20.30;14.33;;;18.40;37.80;;;;;;5028286;28;20421;-75
2021/09/09 06:28:35;;;;;;;22.83;14.50;;;18.40;37.70;;;;;;5012762;28;20435;-76
2021/09/09 06:31:00;;;;;;;22.40;14.05;;;18.50;37.50;;;;;;5024535;28;20414;-74
2021/09/09 06:33:26;;;;;;;21.23;13.40;;;18.60;36.80;;;;;;5013236;28;20392;-75
2021/09/09 06:35:51;;;;;;;21.10;13.97;;;18.70;36.50;;;;;;5013572;28;20389;-74
2021/09/09 06:38:17;;;;;;;21.90;14.00;;;18.80;36.00;;;;;;5031413;28;20399;-75
2021/09/09 06:40:42;;;;;;;23.08;14.05;;;18.80;35.60;;;;;;5034599;28;20391;-77
2021/09/09 06:43:09;;;;;;;24.10;13.90;;;18.90;35.20;;;;;;5033277;28;20391;-76
2021/09/09 06:45:35;;;;;;;18.63;13.93;;;19.00;35.30;;;;;;5023352;28;20414;-75
2021/09/09 06:48:00;;;;;;;20.98;13.57;;;19.10;34.60;;;;;;5032124;28;20383;-77
2021/09/09 06:50:26;;;;;;;23.88;13.70;;;19.20;33.90;;;;;;5031630;28;20453;-76
2021/09/09 06:52:52;;;;;;;19.65;13.30;;;19.30;33.80;;;;;;5034761;28;20387;-77
2021/09/09 06:55:17;;;;;;;21.40;14.07;;;19.30;33.30;;;;;;5035471;28;20403;-77
2021/09/09 06:57:43;;;;;;;20.90;13.57;;;19.40;33.70;;;;;;5034776;28;20383;-77
2021/09/09 07:00:09;;;;;;;20.75;14.00;;;19.50;33.40;;;;;;5029697;28;20449;-75
2021/09/09 07:02:34;;;;;;;19.10;14.05;;;19.60;33.10;;;;;;5031465;28;20848;-75
2021/09/09 07:05:00;;;;;;;18.60;13.45;;;19.60;32.60;;;;;;5030337;28;20490;-76
2021/09/09 07:07:26;;;;;;;20.50;14.30;;;19.70;32.80;;;;;;5045664;28;20402;-76
2021/09/09 07:09:51;;;;;;;27.95;14.35;;;19.80;32.00;;;;;;5031986;28;20390;-76
2021/09/09 07:12:17;;;;;;;17.17;12.85;;;19.90;31.90;;;;;;5030311;28;20394;-76
2021/09/09 07:14:42;;;;;;;21.60;13.67;;;20.00;31.70;;;;;;5031527;28;20478;-76
2021/09/09 07:17:08;;;;;;;24.00;13.27;;;20.10;31.00;;;;;;5027161;28;20402;-76
2021/09/09 07:19:33;;;;;;;19.83;12.65;;;20.20;30.90;;;;;;5025402;28;20885;-75
2021/09/09 07:21:59;;;;;;;20.87;13.50;;;20.20;30.50;;;;;;5032178;28;20961;-75
2021/09/09 07:24:24;;;;;;;23.10;13.60;;;20.30;30.80;;;;;;5018303;28;20416;-76
2021/09/09 07:26:50;;;;;;;20.93;13.67;;;20.50;30.10;;;;;;5011418;28;20417;-76
2021/09/09 07:29:16;;;;;;;20.80;13.27;;;20.60;30.10;;;;;;5009970;28;20496;-74
2021/09/09 07:31:43;;;;;;;18.97;13.20;;;20.60;30.00;;;;;;5011735;28;20388;-74
2021/09/09 07:34:08;;;;;;;17.50;12.43;;;20.60;29.50;;;;;;5007124;28;20485;-74
2021/09/09 07:36:34;;;;;;;17.85;12.90;;;20.80;28.90;;;;;;4992090;28;20489;-74
2021/09/09 07:39:00;;;;;;;17.60;12.80;;;20.90;29.40;;;;;;5004901;28;20913;-74
2021/09/09 07:41:26;;;;;;;24.33;13.60;;;20.90;29.50;;;;;;5011966;28;20389;-74
2021/09/09 07:43:51;;;;;;;18.67;13.93;;;21.00;29.20;;;;;;5011336;28;20467;-73
2021/09/09 07:46:17;;;;;;;17.30;13.35;;;21.10;28.80;;;;;;5011606;28;20891;-74
2021/09/09 07:48:42;;;;;;;21.83;13.73;;;21.20;29.00;;;;;;5011924;28;20483;-75
2021/09/09 07:51:08;;;;;;;17.17;12.90;;;21.30;29.10;;;;;;5011345;28;20384;-74
2021/09/09 07:53:33;;;;;;;20.10;14.00;;;21.40;27.50;;;;;;4999918;28;20414;-74
2021/09/09 07:56:00;;;;;;;22.87;13.10;;;21.50;28.10;;;;;;5007062;28;20397;-74
2021/09/09 07:58:25;;;;;;;19.93;12.63;;;21.50;27.40;;;;;;5010836;28;20428;-73
2021/09/09 08:00:51;;;;;;;17.87;12.63;;;21.60;27.20;;;;;;5011921;28;20750;-74
2021/09/09 08:03:19;;;;;;;17.70;12.13;;;21.70;27.30;;;;;;5001342;28;20756;-74
2021/09/09 08:05:45;;;;;;;16.88;11.38;;;21.70;27.50;;;;;;5002613;28;20477;-74
2021/09/09 08:08:10;;;;;;;20.37;12.63;;;21.80;26.60;;;;;;5003690;28;20405;-74
2021/09/09 08:10:36;;;;;;;16.98;13.13;;;21.90;26.80;;;;;;5011205;28;20384;-75
2021/09/09 08:13:02;;;;;;;21.30;13.10;;;22.00;26.50;;;;;;5010710;28;20392;-73
2021/09/09 08:15:27;;;;;;;18.33;13.10;;;22.10;26.50;;;;;;5011225;28;20391;-72
2021/09/09 08:17:53;;;;;;;21.75;12.80;;;22.20;25.80;;;;;;5003455;28;20430;-73
2021/09/09 08:20:18;;;;;;;17.97;13.17;;;22.30;25.80;;;;;;5001114;28;20389;-72
2021/09/09 08:22:44;;;;;;;18.80;12.70;;;22.40;26.20;;;;;;5010517;28;20877;-73
2021/09/09 08:25:11;;;;;;;23.08;14.00;;;22.40;25.70;;;;;;5010981;28;20403;-73
2021/09/09 08:27:37;;;;;;;17.63;12.80;;;22.50;25.80;;;;;;5010075;28;20396;-74
2021/09/09 08:30:03;;;;;;;20.33;13.90;;;22.50;26.00;;;;;;5010855;28;20528;-73
2021/09/09 08:32:29;;;;;;;19.52;12.75;;;22.70;26.10;;;;;;5010121;28;20432;-74
2021/09/09 08:34:56;;;;;;;21.40;12.70;;;22.70;25.00;;;;;;5009132;28;20469;-74
2021/09/09 08:37:25;;;;;;;17.10;12.40;;;22.80;25.40;;;;;;4993774;28;21381;-74
2021/09/09 08:39:51;;;;;;;14.73;12.68;;;22.90;24.50;;;;;;5012996;28;20774;-74
2021/09/09 08:42:17;;;;;;;20.13;13.23;;;23.00;23.90;;;;;;5012184;28;20470;-74
2021/09/09 08:44:43;;;;;;;19.15;12.57;;;23.10;23.90;;;;;;5011028;28;20392;-75
2021/09/09 08:47:09;;;;;;;16.83;12.35;;;23.10;23.30;;;;;;5013867;28;20901;-75
2021/09/09 08:49:35;;;;;;;19.15;13.07;;;23.20;23.60;;;;;;5011242;28;20894;-74
2021/09/09 08:52:03;;;;;;;20.58;13.23;;;23.20;23.10;;;;;;5011748;28;20785;-75
2021/09/09 08:54:30;;;;;;;16.67;11.90;;;23.20;23.30;;;;;;4994459;28;20456;-75
2021/09/09 08:56:55;;;;;;;16.85;12.18;;;23.30;23.30;;;;;;5000918;28;20824;-74
2021/09/09 08:59:21;;;;;;;21.77;12.50;;;23.40;23.60;;;;;;5008585;28;20478;-75
2021/09/09 09:02:03;;;;;;;21.25;11.52;;;23.40;23.10;;;;;;5006097;28;20400;-75
2021/09/09 09:04:29;;;;;;;20.52;12.70;;;23.60;23.10;;;;;;5011233;28;20450;-78
2021/09/09 09:06:55;;;;;;;18.25;12.55;;;23.80;23.10;;;;;;4999628;28;20895;-75
2021/09/09 09:09:23;;;;;;;22.50;12.98;;;23.80;22.60;;;;;;4991099;28;20383;-75
2021/09/09 09:11:49;;;;;;;18.63;12.90;;;23.90;22.40;;;;;;4998543;28;20394;-76
2021/09/09 09:14:21;;;;;;;22.75;12.68;;;23.90;22.40;;;;;;4998388;28;20393;-76
2021/09/09 09:16:51;;;;;;;25.42;12.25;;;23.90;22.70;;;;;;5010779;28;20391;-75
2021/09/09 09:19:26;;;;;;;21.85;12.50;;;24.00;22.20;;;;;;5005018;28;20404;-75
2021/09/09 09:22:12;;;;;;;22.05;12.70;;;24.10;21.80;;;;;;5002470;28;20400;-77
2021/09/09 09:24:45;;;;;;;16.65;12.23;;;24.10;22.10;;;;;;5016607;28;20381;-75
2021/09/09 09:27:19;;;;;;;16.53;11.83;;;24.20;22.00;;;;;;5008132;28;20405;-79
2021/09/09 09:30:01;;;;;;;15.97;11.50;;;24.40;21.60;;;;;;5010577;28;20420;-76
2021/09/09 09:32:26;;;;;;;15.45;11.20;;;24.50;22.10;;;;;;5014454;28;20466;-75
2021/09/09 09:35:11;;;;;;;18.47;10.83;;;24.60;20.50;;;;;;5019425;28;20750;-77
2021/09/09 09:37:56;;;;;;;19.17;11.10;;;24.60;21.00;;;;;;5014352;28;20447;-77
2021/09/09 09:40:41;;;;;;;17.52;10.93;;;24.60;20.30;;;;;;5014476;28;20401;-75
2021/09/09 09:43:11;;;;;;;20.58;11.90;;;24.70;20.40;;;;;;5010160;28;20426;-75
2021/09/09 09:45:49;;;;;;;17.15;11.77;;;24.70;20.50;;;;;;4998873;28;20417;-74
2021/09/09 09:48:33;;;;;;;21.55;12.07;;;24.70;21.00;;;;;;5012632;28;20400;-75
2021/09/09 09:50:59;;;;;;;17.17;12.63;;;24.70;20.70;;;;;;5006261;28;20755;-74
2021/09/09 09:53:25;;;;;;;19.70;11.65;;;24.80;20.60;;;;;;4994989;28;20386;-75
2021/09/09 09:55:50;;;;;;;18.17;12.20;;;24.80;20.40;;;;;;5004257;28;20443;-74
2021/09/09 09:58:16;;;;;;;17.65;13.30;;;24.80;21.10;;;;;;5019712;28;20666;-76
2021/09/09 10:00:43;;;;;;;20.92;11.95;;;24.90;21.20;;;;;;5004726;28;20470;-76
2021/09/09 10:03:08;;;;;;;15.90;11.63;;;25.00;20.50;;;;;;5012137;28;20914;-75
2021/09/09 10:05:38;;;;;;;17.08;11.55;;;25.00;21.40;;;;;;5018487;28;20433;-78
2021/09/09 10:08:05;;;;;;;19.15;13.95;;;25.10;21.00;;;;;;5034851;28;20390;-74
2021/09/09 10:10:31;;;;;;;19.35;12.40;;;25.30;20.10;;;;;;5026001;28;20456;-76
2021/09/09 10:12:57;;;;;;;17.90;12.55;;;25.40;20.60;;;;;;5018877;28;20479;-76
2021/09/09 10:15:23;;;;;;;16.15;12.32;;;25.30;20.40;;;;;;5020355;28;20423;-76
2021/09/09 10:17:51;;;;;;;20.83;13.35;;;25.40;20.30;;;;;;5020395;28;20453;-75
2021/09/09 10:20:27;;;;;;;21.13;13.25;;;25.50;20.00;;;;;;5006043;28;20395;-73
2021/09/09 10:23:25;;;;;;;17.60;14.07;;;25.50;19.90;;;;;;4994726;28;20383;-75
2021/09/09 10:25:54;;;;;;;20.98;12.90;;;25.50;19.90;;;;;;5006669;28;20418;-74
2021/09/09 10:28:37;;;;;;;24.25;13.00;;;25.60;20.10;;;;;;4994305;28;20391;-77
2021/09/09 10:31:24;;;;;;;18.73;12.80;;;25.70;19.70;;;;;;4996204;28;20399;-76
2021/09/09 10:33:52;;;;;;;20.35;13.40;;;25.70;19.70;;;;;;4997297;28;20446;-74
2021/09/09 10:36:40;;;;;;;19.00;11.80;;;25.80;19.90;;;;;;5000580;28;20425;-76
2021/09/09 10:39:13;;;;;;;14.43;11.40;;;25.90;20.00;;;;;;5001650;28;20380;-76
2021/09/09 10:41:40;;;;;;;18.23;12.18;;;26.00;20.00;;;;;;5008161;28;20387;-77
2021/09/09 10:44:08;;;;;;;15.40;11.55;;;26.20;20.20;;;;;;5007587;28;20478;-75
2021/09/09 10:46:42;;;;;;;19.90;15.07;;;26.30;19.50;;;;;;5010565;28;20809;-78
2021/09/09 10:49:15;;;;;;;18.33;13.00;;;26.10;19.90;;;;;;5016245;28;20397;-76
2021/09/09 10:52:07;;;;;;;17.70;12.10;;;26.10;20.40;;;;;;5017330;28;20384;-75
2021/09/09 10:54:53;;;;;;;17.88;12.35;;;26.20;20.40;;;;;;5019640;28;20432;-76
2021/09/09 10:57:19;;;;;;;20.80;12.93;;;26.40;20.40;;;;;;5017508;28;20400;-76
2021/09/09 10:59:46;;;;;;;17.40;12.13;;;26.50;19.90;;;;;;5016159;28;20922;-76
2021/09/09 11:02:15;;;;;;;26.10;14.00;;;26.60;19.60;;;;;;5017665;28;20388;-77
2021/09/09 11:04:41;;;;;;;19.48;13.13;;;26.70;19.90;;;;;;5015423;28;20447;-77
2021/09/09 11:07:41;;;;;;;19.33;13.45;;;27.00;19.90;;;;;;5026735;28;20420;-75
2021/09/09 11:10:09;;;;;;;19.73;12.43;;;26.90;19.80;;;;;;5001773;28;20405;-76
2021/09/09 11:12:41;;;;;;;20.80;14.18;;;26.90;20.00;;;;;;5016510;28;20428;-76
2021/09/09 11:15:12;;;;;;;21.65;14.25;;;27.00;20.30;;;;;;5000420;28;20461;-75
2021/09/09 11:17:38;;;;;;;23.37;14.63;;;27.10;20.00;;;;;;4995721;28;20386;-76
2021/09/09 11:20:09;;;;;;;21.00;14.40;;;27.30;20.20;;;;;;5012137;28;20396;-76
2021/09/09 11:22:35;;;;;;;19.67;14.50;;;27.30;20.50;;;;;;5015774;28;20389;-77
2021/09/09 11:25:02;;;;;;;21.75;14.55;;;27.40;19.80;;;;;;5014109;28;20492;-74
2021/09/09 11:27:29;;;;;;;20.58;13.50;;;27.40;19.70;;;;;;5012487;28;20452;-75
2021/09/09 11:29:57;;;;;;;23.73;13.50;;;27.40;20.30;;;;;;5014255;28;20407;-75
2021/09/09 11:32:23;;;;;;;20.85;13.57;;;27.60;19.90;;;;;;5014496;28;20877;-74
2021/09/09 11:34:48;;;;;;;17.33;12.50;;;27.80;19.60;;;;;;5013712;28;20404;-75
2021/09/09 11:37:14;;;;;;;19.23;13.45;;;28.10;19.50;;;;;;5012706;28;20408;-75
2021/09/09 11:39:40;;;;;;;23.40;14.10;;;28.50;18.60;;;;;;5009444;28;20406;-76
2021/09/09 11:42:06;;;;;;;20.98;14.10;;;28.60;18.20;;;;;;5006402;28;20419;-76
2021/09/09 11:44:34;;;;;;;21.45;12.50;;;28.70;17.70;;;;;;5017331;28;20426;-76
2021/09/09 11:47:11;;;;;;;22.55;14.02;;;28.70;17.60;;;;;;5041128;28;20490;-74
2021/09/09 11:49:37;;;;;;;24.27;12.77;;;28.70;17.90;;;;;;5027326;28;20393;-75
2021/09/09 11:52:06;;;;;;;25.60;14.07;;;28.60;18.50;;;;;;5031139;28;20405;-73
2021/09/09 11:54:33;;;;;;;21.40;12.18;;;28.60;18.50;;;;;;5037202;28;20420;-75
2021/09/09 11:57:16;;;;;;;31.83;13.00;;;28.60;18.90;;;;;;5034482;28;20399;-76
2021/09/09 11:59:49;;;;;;;20.05;13.80;;;28.60;18.40;;;;;;5033443;28;20418;-76
2021/09/09 12:02:19;;;;;;;25.73;12.82;;;28.40;18.80;;;;;;5023222;28;20411;-74
2021/09/09 12:04:55;;;;;;;22.60;13.50;;;28.40;19.30;;;;;;5025243;28;20419;-77
2021/09/09 12:07:26;;;;;;;25.50;13.13;;;28.40;19.20;;;;;;5031770;28;20938;-78
2021/09/09 12:10:11;;;;;;;18.70;14.10;;;28.50;19.10;;;;;;5031975;28;20465;-76
2021/09/09 12:12:37;;;;;;;19.67;14.02;;;28.50;19.40;;;;;;5033328;28;20415;-76
2021/09/09 12:15:08;;;;;;;18.10;12.63;;;28.30;19.80;;;;;;5032960;28;20441;-76
2021/09/09 12:17:35;;;;;;;18.05;13.55;;;28.20;20.10;;;;;;5031079;28;20537;-76
2021/09/09 12:20:02;;;;;;;24.63;13.35;;;28.30;20.00;;;;;;5032654;28;20391;-76
2021/09/09 12:22:52;;;;;;;17.48;12.88;;;28.50;19.70;;;;;;5032912;28;20896;-75
2021/09/09 12:25:26;;;;;;;18.88;12.52;;;28.70;19.10;;;;;;5033207;28;20828;-76
2021/09/09 12:27:55;;;;;;;17.47;12.10;;;29.00;19.20;;;;;;5032827;28;20486;-77
2021/09/09 12:30:22;;;;;;;13.43;11.15;;;29.10;19.30;;;;;;5033846;28;20770;-75